createdAt,value
2019-04-03T00:00:37.959Z,100.00
2019-04-03T00:03:26.740Z,100.00
2019-04-03T00:06:15.581Z,100.00
2019-04-03T00:12:33.082Z,100.00
2019-04-03T00:15:21.904Z,100.00
2019-04-03T00:18:10.931Z,100.00
2019-04-03T00:20:59.688Z,100.00
2019-04-03T00:23:48.521Z,100.00
2019-04-03T00:26:37.346Z,100.00
2019-04-03T00:29:26.177Z,100.00
2019-04-03T00:32:14.985Z,100.00
2019-04-03T00:38:18.599Z,100.00
2019-04-03T00:41:07.416Z,100.00
2019-04-03T00:44:15.348Z,100.00
2019-04-03T00:50:32.469Z,100.00
2019-04-03T00:53:14.560Z,100.00
2019-04-03T00:56:22.433Z,100.00
2019-04-03T00:59:11.281Z,100.00
2019-04-03T01:02:19.194Z,100.00
2019-04-03T01:05:08.111Z,100.00
2019-04-03T01:07:59.251Z,100.00
2019-04-03T01:10:47.483Z,100.00
2019-04-03T01:13:36.380Z,100.00
2019-04-03T01:16:25.246Z,100.00
2019-04-03T01:19:14.195Z,100.00
2019-04-03T01:22:03.042Z,100.00
2019-04-03T01:24:51.847Z,100.00
2019-04-03T01:27:41.623Z,100.00
2019-04-03T01:30:31.362Z,100.00
2019-04-03T01:33:20.218Z,100.00
2019-04-03T01:36:09.052Z,100.00
2019-04-03T01:38:57.873Z,100.00
2019-04-03T01:41:46.717Z,100.00
2019-04-03T01:44:35.541Z,100.00
2019-04-03T01:47:24.369Z,100.00
2019-04-03T01:50:13.255Z,100.00
2019-04-03T01:52:55.241Z,100.00
2019-04-03T01:55:44.063Z,100.00
2019-04-03T01:58:32.901Z,100.00
2019-04-03T02:01:21.714Z,100.00
2019-04-03T02:04:12.131Z,100.00
2019-04-03T02:07:01.101Z,100.00
2019-04-03T02:09:49.947Z,100.00
2019-04-03T02:12:38.794Z,100.00
2019-04-03T02:15:27.611Z,100.00
2019-04-03T02:18:16.459Z,100.00
2019-04-03T02:21:05.249Z,100.00
2019-04-03T02:23:54.102Z,100.00
2019-04-03T02:26:42.920Z,100.00
2019-04-03T02:29:50.863Z,100.00
2019-04-03T02:32:39.709Z,100.00
2019-04-03T02:35:28.551Z,100.00
2019-04-03T02:38:21.319Z,100.00
2019-04-03T02:41:07.938Z,100.00
2019-04-03T02:43:56.752Z,100.00
2019-04-03T02:46:45.713Z,100.00
2019-04-03T02:49:34.513Z,100.00
2019-04-03T02:55:31.581Z,100.00
2019-04-03T02:58:22.049Z,100.00
2019-04-03T03:01:10.947Z,100.00
2019-04-03T03:04:21.787Z,100.00
2019-04-03T03:07:09.521Z,100.00
2019-04-03T03:13:26.921Z,100.00
2019-04-03T03:16:18.760Z,100.00
2019-04-03T03:19:07.892Z,100.00
2019-04-03T03:22:18.592Z,100.00
2019-04-03T03:25:08.291Z,100.00
2019-04-03T03:31:12.779Z,100.00
2019-04-03T03:37:18.143Z,100.00
2019-04-03T03:40:08.832Z,100.00
2019-04-03T03:43:17.022Z,100.00
2019-04-03T03:46:16.574Z,100.00
2019-04-03T03:52:21.031Z,100.00
2019-04-03T03:55:05.483Z,100.00
2019-04-03T04:01:09.353Z,100.00
2019-04-03T04:07:12.741Z,100.00
2019-04-03T04:13:30.264Z,100.00
2019-04-03T04:16:21.179Z,100.00
2019-04-03T04:19:10.146Z,100.00
2019-04-03T04:21:59.012Z,100.00
2019-04-03T04:24:47.851Z,100.00
2019-04-03T04:27:38.616Z,100.00
2019-04-03T04:30:27.232Z,100.00
2019-04-03T04:33:17.221Z,100.00
2019-04-03T04:36:06.666Z,100.00
2019-04-03T04:38:55.840Z,100.00
2019-04-03T04:41:46.046Z,100.00
2019-04-03T04:44:34.889Z,100.00
2019-04-03T04:47:23.729Z,100.00
2019-04-03T04:50:12.687Z,100.00
2019-04-03T04:53:01.516Z,100.00
2019-04-03T04:55:43.671Z,100.00
2019-04-03T04:58:32.500Z,100.00
2019-04-03T05:01:21.341Z,100.00
2019-04-03T05:04:10.159Z,100.00
2019-04-03T05:07:00.166Z,100.00
2019-04-03T05:09:49.542Z,100.00
2019-04-03T05:12:39.157Z,100.00
2019-04-03T05:15:28.947Z,100.00
2019-04-03T05:18:36.903Z,100.00
2019-04-03T05:21:25.731Z,100.00
2019-04-03T05:24:14.644Z,100.00
2019-04-03T05:30:52.651Z,100.00
2019-04-03T05:33:42.380Z,100.00
2019-04-03T05:36:32.109Z,100.00
2019-04-03T05:39:22.065Z,100.00
2019-04-03T05:42:11.502Z,100.00
2019-04-03T05:45:00.323Z,100.00
2019-04-03T05:47:49.151Z,100.00
2019-04-03T05:50:37.967Z,100.00
2019-04-03T05:56:16.098Z,100.00
2019-04-03T05:59:04.952Z,100.00
2019-04-03T06:01:53.959Z,100.00
2019-04-03T06:04:42.901Z,100.00
2019-04-03T06:07:31.754Z,100.00
2019-04-03T06:10:39.768Z,100.00
2019-04-03T06:13:09.415Z,100.00
2019-04-03T06:15:58.307Z,100.00
2019-04-03T06:18:47.693Z,100.00
2019-04-03T06:21:37.676Z,100.00
2019-04-03T06:24:26.790Z,100.00
2019-04-03T06:27:19.130Z,100.00
2019-04-03T06:33:22.062Z,100.00
2019-04-03T06:35:51.551Z,100.00
2019-04-03T06:38:40.364Z,100.00
2019-04-03T06:41:29.444Z,100.00
2019-04-03T06:44:18.497Z,100.00
2019-04-03T06:47:07.400Z,100.00
2019-04-03T06:49:56.462Z,100.00
2019-04-03T06:52:46.776Z,100.00
2019-04-03T06:55:29.057Z,100.00
2019-04-03T06:58:17.864Z,100.00
2019-04-03T07:01:06.683Z,100.00
2019-04-03T07:03:55.536Z,100.00
2019-04-03T07:06:45.176Z,100.00
2019-04-03T07:09:36.820Z,100.00
2019-04-03T07:12:25.527Z,100.00
2019-04-03T07:15:14.350Z,100.00
2019-04-03T07:18:05.216Z,100.00
2019-04-03T07:20:53.970Z,100.00
2019-04-03T07:23:42.799Z,100.00
2019-04-03T07:26:31.826Z,100.00
2019-04-03T07:29:20.754Z,100.00
2019-04-03T07:32:09.632Z,100.00
2019-04-03T07:34:58.452Z,100.00
2019-04-03T07:37:49.047Z,100.00
2019-04-03T07:40:37.828Z,100.00
2019-04-03T07:43:27.521Z,100.00
2019-04-03T07:46:17.240Z,100.00
2019-04-03T07:49:08.511Z,100.00
2019-04-03T07:51:56.631Z,100.00
2019-04-03T07:54:45.838Z,100.00
2019-04-03T07:57:29.434Z,100.00
2019-04-03T08:00:18.776Z,100.00
2019-04-03T08:03:07.596Z,100.00
2019-04-03T08:05:56.877Z,100.00
2019-04-03T08:11:54.977Z,100.00
2019-04-03T08:14:44.160Z,100.00
2019-04-03T08:17:34.380Z,100.00
2019-04-03T08:23:51.511Z,100.00
2019-04-03T08:26:40.389Z,100.00
2019-04-03T08:29:29.249Z,100.00
2019-04-03T08:32:18.382Z,100.00
2019-04-03T08:35:19.285Z,100.00
2019-04-03T08:37:59.404Z,100.00
2019-04-03T08:40:49.779Z,100.00
2019-04-03T08:43:38.965Z,100.00
2019-04-03T08:46:27.792Z,100.00
2019-04-03T08:49:16.657Z,100.00
2019-04-03T08:52:06.124Z,100.00
2019-04-03T08:54:56.127Z,100.00
2019-04-03T08:57:38.689Z,100.00
2019-04-03T09:00:46.647Z,100.00
2019-04-03T09:03:35.497Z,100.00
2019-04-03T09:06:24.320Z,100.00
2019-04-03T09:09:13.166Z,100.00
2019-04-03T09:12:02.077Z,100.00
2019-04-03T09:14:50.887Z,100.00
2019-04-03T09:17:58.824Z,100.00
2019-04-03T09:20:47.752Z,100.00
2019-04-03T09:23:36.593Z,100.00
2019-04-03T09:26:44.480Z,100.00
2019-04-03T09:29:33.300Z,100.00
2019-04-03T09:32:41.226Z,97.76
2019-04-03T09:35:32.165Z,98.88
2019-04-03T09:38:20.640Z,100.00
2019-04-03T09:41:28.552Z,97.58
2019-04-03T09:44:17.383Z,98.10
2019-04-03T09:47:06.382Z,100.00
2019-04-03T09:49:56.779Z,97.43
2019-04-03T09:52:49.396Z,96.80
2019-04-03T09:55:37.613Z,99.74
2019-04-03T09:58:19.320Z,97.80
2019-04-03T10:01:27.206Z,95.39
2019-04-03T10:04:16.122Z,96.20
2019-04-03T10:07:05.219Z,93.17
2019-04-03T10:09:54.834Z,97.18
2019-04-03T10:12:47.618Z,94.63
2019-04-03T10:15:35.195Z,92.30
2019-04-03T10:18:24.067Z,91.03
2019-04-03T10:21:12.904Z,91.56
2019-04-03T10:24:02.123Z,91.40
2019-04-03T10:26:52.280Z,94.35
2019-04-03T10:29:41.209Z,94.94
2019-04-03T10:32:30.216Z,95.21
2019-04-03T10:35:20.669Z,94.25
2019-04-03T10:38:09.484Z,95.22
2019-04-03T10:40:58.602Z,93.98
2019-04-03T10:43:48.916Z,95.52
2019-04-03T10:46:37.784Z,94.54
2019-04-03T10:52:43.981Z,91.94
2019-04-03T10:55:31.916Z,89.38
2019-04-03T10:58:13.580Z,88.14
2019-04-03T11:04:10.362Z,86.12
2019-04-03T11:06:59.184Z,79.55
2019-04-03T11:09:48.069Z,80.48
2019-04-03T11:12:36.877Z,80.91
2019-04-03T11:15:45.109Z,81.26
2019-04-03T11:18:35.661Z,80.87
2019-04-03T11:21:25.925Z,83.83
2019-04-03T11:24:14.782Z,84.32
2019-04-03T11:27:28.973Z,84.05
2019-04-03T11:30:34.209Z,82.98
2019-04-03T11:33:23.031Z,84.30
2019-04-03T11:36:12.234Z,80.95
2019-04-03T11:39:13.146Z,81.44
2019-04-03T11:42:23.221Z,77.53
2019-04-03T11:45:04.753Z,77.91
2019-04-03T11:47:53.534Z,82.12
2019-04-03T11:50:42.367Z,75.07
2019-04-03T11:53:31.246Z,77.82
2019-04-03T11:56:20.141Z,77.93
2019-04-03T11:59:02.534Z,79.05
2019-04-03T12:01:51.366Z,76.26
2019-04-03T12:04:41.732Z,82.20
2019-04-03T12:07:30.773Z,80.34
2019-04-03T12:10:19.706Z,77.93
2019-04-03T12:13:08.592Z,81.02
2019-04-03T12:15:58.397Z,81.62
2019-04-03T12:18:48.434Z,81.13
2019-04-03T12:21:38.710Z,82.24
2019-04-03T12:24:46.660Z,81.14
2019-04-03T12:27:36.314Z,81.19
2019-04-03T12:30:26.926Z,79.49
2019-04-03T12:36:16.972Z,80.82
2019-04-03T12:39:28.225Z,80.34
2019-04-03T12:42:18.782Z,77.67
2019-04-03T12:48:37.948Z,78.82
2019-04-03T12:54:24.449Z,76.67
2019-04-03T12:57:13.325Z,76.35
2019-04-03T13:00:02.490Z,75.00
2019-04-03T13:02:53.050Z,73.02
2019-04-03T13:05:43.269Z,72.68
2019-04-03T13:08:32.111Z,79.68
2019-04-03T13:14:35.592Z,78.96
2019-04-03T13:17:24.656Z,80.50
2019-04-03T13:20:14.469Z,78.44
2019-04-03T13:23:05.094Z,79.65
2019-04-03T13:26:13.005Z,79.08
2019-04-03T13:29:02.266Z,78.21
2019-04-03T13:31:52.851Z,78.96
2019-04-03T13:34:43.258Z,74.75
2019-04-03T13:37:33.545Z,75.42
2019-04-03T13:40:22.392Z,76.59
2019-04-03T13:43:11.385Z,75.42
2019-04-03T13:46:00.228Z,76.31
2019-04-03T13:48:49.069Z,73.79
2019-04-03T13:51:37.921Z,74.84
2019-04-03T13:54:27.287Z,75.93
2019-04-03T13:57:17.408Z,76.66
2019-04-03T14:00:01.670Z,76.21
2019-04-03T14:02:50.590Z,79.31
2019-04-03T14:05:42.631Z,78.36
2019-04-03T14:08:31.410Z,74.94
2019-04-03T14:11:20.268Z,74.52
2019-04-03T14:14:09.127Z,74.95
2019-04-03T14:16:58.166Z,73.62
2019-04-03T14:20:06.230Z,73.77
2019-04-03T14:22:55.444Z,71.54
2019-04-03T14:25:45.722Z,71.57
2019-04-03T14:28:35.438Z,70.25
2019-04-03T14:31:34.846Z,72.85
2019-04-03T14:34:15.701Z,73.81
2019-04-03T14:37:26.240Z,74.49
2019-04-03T14:40:14.501Z,74.93
2019-04-03T14:43:05.188Z,74.71
2019-04-03T14:45:55.549Z,75.73
2019-04-03T14:48:44.894Z,75.31
2019-04-03T14:51:34.977Z,77.80
2019-04-03T14:54:24.562Z,78.76
2019-04-03T14:57:20.741Z,80.62
2019-04-03T14:59:57.743Z,79.77
2019-04-03T15:02:46.630Z,78.57
2019-04-03T15:05:38.895Z,78.68
2019-04-03T15:08:26.088Z,80.99
2019-04-03T15:11:14.924Z,78.09
2019-04-03T15:14:04.112Z,78.01
2019-04-03T15:20:23.130Z,80.11
2019-04-03T15:23:14.182Z,81.28
2019-04-03T15:26:03.344Z,78.91
2019-04-03T15:28:53.696Z,79.46
2019-04-03T15:32:01.667Z,80.76
2019-04-03T15:34:51.175Z,80.80
2019-04-03T15:37:42.396Z,80.88
2019-04-03T15:40:31.665Z,82.75
2019-04-03T15:43:20.481Z,74.50
2019-04-03T15:46:09.681Z,71.47
2019-04-03T15:48:58.819Z,73.50
2019-04-03T15:51:49.206Z,75.01
2019-04-03T15:54:38.115Z,76.10
2019-04-03T15:57:27.009Z,78.24
2019-04-03T16:00:10.361Z,79.02
2019-04-03T16:02:59.223Z,80.12
2019-04-03T16:05:48.079Z,80.63
2019-04-03T16:08:36.906Z,80.12
2019-04-03T16:11:26.976Z,80.07
2019-04-03T16:14:18.587Z,80.69
2019-04-03T16:20:21.383Z,78.46
2019-04-03T16:23:10.669Z,77.30
2019-04-03T16:26:00.842Z,75.30
2019-04-03T16:29:09.340Z,74.64
2019-04-03T16:31:59.550Z,75.29
2019-04-03T16:34:49.958Z,76.24
2019-04-03T16:37:57.985Z,77.74
2019-04-03T16:40:47.513Z,76.79
2019-04-03T16:43:37.354Z,79.79
2019-04-03T16:46:26.361Z,81.99
2019-04-03T16:49:15.331Z,81.50
2019-04-03T16:52:05.596Z,80.55
2019-04-03T16:54:54.971Z,81.65
2019-04-03T16:57:43.970Z,80.44
2019-04-03T17:00:28.181Z,83.70
2019-04-03T17:03:17.590Z,85.33
2019-04-03T17:06:06.778Z,85.74
2019-04-03T17:08:58.704Z,86.79
2019-04-03T17:11:48.874Z,87.84
2019-04-03T17:14:38.151Z,87.96
2019-04-03T17:17:27.155Z,87.66
2019-04-03T17:20:16.205Z,88.84
2019-04-03T17:23:17.539Z,88.69
2019-04-03T17:26:08.895Z,89.36
2019-04-03T17:29:04.028Z,89.25
2019-04-03T17:31:47.649Z,89.25
2019-04-03T17:34:37.860Z,90.04
2019-04-03T17:37:29.597Z,91.76
2019-04-03T17:40:17.763Z,92.15
2019-04-03T17:43:38.338Z,93.56
2019-04-03T17:46:17.754Z,94.76
2019-04-03T17:49:07.153Z,94.29
2019-04-03T17:51:58.144Z,93.85
2019-04-03T17:54:46.780Z,95.14
2019-04-03T17:57:37.331Z,96.29
2019-04-03T18:00:21.584Z,97.28
2019-04-03T18:03:10.445Z,97.11
2019-04-03T18:05:59.352Z,98.14
2019-04-03T18:08:48.228Z,96.91
2019-04-03T18:11:37.454Z,96.21
2019-04-03T18:17:35.791Z,98.05
2019-04-03T18:20:24.600Z,98.35
2019-04-03T18:23:13.540Z,99.13
2019-04-03T18:26:02.369Z,98.58
2019-04-03T18:28:51.347Z,98.85
2019-04-03T18:31:40.265Z,99.56
2019-04-03T18:34:29.252Z,99.13
2019-04-03T18:37:18.140Z,98.63
2019-04-03T18:40:27.873Z,99.12
2019-04-03T18:43:16.723Z,98.57
2019-04-03T18:46:05.561Z,100.00
2019-04-03T18:48:58.843Z,98.56
2019-04-03T18:51:44.999Z,100.00
2019-04-03T18:54:33.817Z,98.77
2019-04-03T18:57:22.677Z,99.36
2019-04-03T19:00:06.083Z,100.00
2019-04-03T19:02:54.930Z,99.84
2019-04-03T19:05:43.786Z,100.00
2019-04-03T19:08:32.643Z,100.00
2019-04-03T19:11:21.568Z,100.00
2019-04-03T19:14:10.413Z,100.00
2019-04-03T19:16:59.322Z,100.00
2019-04-03T19:19:48.219Z,100.00
2019-04-03T19:23:02.319Z,100.00
2019-04-03T19:25:46.878Z,100.00
2019-04-03T19:28:35.737Z,100.00
2019-04-03T19:31:05.319Z,100.00
2019-04-03T19:33:54.231Z,100.00
2019-04-03T19:36:43.278Z,100.00
2019-04-03T19:39:33.743Z,100.00
2019-04-03T19:42:22.579Z,100.00
2019-04-03T19:45:12.951Z,100.00
2019-04-03T19:48:02.186Z,100.00
2019-04-03T19:50:51.034Z,100.00
2019-04-03T19:53:59.946Z,100.00
2019-04-03T19:56:49.567Z,100.00
2019-04-03T20:02:42.710Z,100.00
2019-04-03T20:05:30.134Z,100.00
2019-04-03T20:08:19.053Z,100.00
2019-04-03T20:11:07.936Z,100.00
2019-04-03T20:13:56.768Z,100.00
2019-04-03T20:16:45.683Z,100.00
2019-04-03T20:19:34.524Z,100.00
2019-04-03T20:22:23.377Z,100.00
2019-04-03T20:25:14.525Z,100.00
2019-04-03T20:28:02.944Z,100.00
2019-04-03T20:30:51.882Z,100.00
2019-04-03T20:36:50.649Z,100.00
2019-04-03T20:39:39.028Z,100.00
2019-04-03T20:42:27.909Z,100.00
2019-04-03T20:45:35.833Z,100.00
2019-04-03T20:48:28.093Z,100.00
2019-04-03T20:51:15.312Z,100.00
2019-04-03T20:54:04.244Z,100.00
2019-04-03T20:56:57.888Z,100.00
2019-04-03T20:59:57.652Z,100.00
2019-04-03T21:02:27.031Z,100.00
2019-04-03T21:05:18.179Z,100.00
2019-04-03T21:08:06.844Z,100.00
2019-04-03T21:10:55.683Z,100.00
2019-04-03T21:13:44.679Z,100.00
2019-04-03T21:16:52.559Z,100.00
2019-04-03T21:19:41.388Z,100.00
2019-04-03T21:22:30.420Z,100.00
2019-04-03T21:25:20.784Z,100.00
2019-04-03T21:28:11.012Z,100.00
2019-04-03T21:31:00.162Z,100.00
2019-04-03T21:33:49.024Z,100.00
2019-04-03T21:36:38.852Z,100.00
2019-04-03T21:39:28.427Z,100.00
2019-04-03T21:42:36.307Z,100.00
2019-04-03T21:45:25.128Z,100.00
2019-04-03T21:48:14.373Z,100.00
2019-04-03T21:51:04.611Z,100.00
2019-04-03T21:54:12.706Z,100.00
2019-04-03T21:57:01.530Z,100.00
2019-04-03T21:59:50.380Z,100.00
2019-04-03T22:02:32.140Z,100.00
2019-04-03T22:05:21.069Z,100.00
2019-04-03T22:08:09.908Z,100.00
2019-04-03T22:14:13.895Z,100.00
2019-04-03T22:17:02.843Z,100.00
2019-04-03T22:19:51.658Z,100.00
2019-04-03T22:22:40.506Z,100.00
2019-04-03T22:25:29.343Z,100.00
2019-04-03T22:28:18.186Z,100.00
2019-04-03T22:31:07.013Z,100.00
2019-04-03T22:33:58.621Z,100.00
2019-04-03T22:36:46.462Z,100.00
2019-04-03T22:39:36.986Z,100.00
2019-04-03T22:42:25.871Z,100.00
2019-04-03T22:45:14.730Z,100.00
2019-04-03T22:48:03.559Z,100.00
2019-04-03T22:50:52.418Z,100.00
2019-04-03T23:00:25.869Z,100.00
2019-04-03T23:03:07.963Z,100.00
2019-04-03T23:05:56.814Z,100.00
2019-04-03T23:08:45.636Z,100.00
2019-04-03T23:11:34.549Z,100.00
2019-04-03T23:14:23.408Z,100.00
2019-04-03T23:17:14.013Z,100.00
2019-04-03T23:20:02.804Z,100.00
2019-04-03T23:22:51.634Z,100.00
2019-04-03T23:25:40.531Z,100.00
2019-04-03T23:28:29.365Z,100.00
2019-04-03T23:31:18.224Z,100.00
2019-04-03T23:34:07.116Z,100.00
2019-04-03T23:36:55.951Z,100.00
2019-04-03T23:39:44.770Z,100.00
2019-04-03T23:42:33.604Z,100.00
2019-04-03T23:48:22.416Z,100.00
2019-04-03T23:51:22.652Z,100.00
2019-04-03T23:54:03.321Z,100.00
2019-04-03T23:56:53.390Z,100.00
2019-04-03T23:59:42.454Z,100.00
